Time;durP1;ratioP1;P1;durP2;ratioP2;P2;SDS_P1;SDS_P2;PMS_P1;PMS_P2;Temp;Humidity;BMP_temperature;BMP_pressure;BME280_temperature;BME280_humidity;BME280_pressure;Samples;Min_cycle;Max_cycle;Signal;HPM_P1;HPM_P2
2022/02/03 00:01:00;;;;;;;4.38;2.08;;;2.90;99.90;;;;;;5055599;28;20189;-57
2022/02/03 00:06:24;;;;;;;6.03;2.47;;;2.80;99.90;;;;;;5051887;28;20183;-58
2022/02/03 00:08:55;;;;;;;9.38;2.33;;;2.80;99.90;;;;;;5049650;28;20626;-59
2022/02/03 00:16:04;;;;;;;3.90;1.85;;;2.80;99.90;;;;;;5057385;28;20186;-58
2022/02/03 00:21:58;;;;;;;6.90;2.58;;;2.70;99.90;;;;;;5053150;28;20185;-55
2022/02/03 00:25:16;;;;;;;5.63;1.85;;;2.70;99.90;;;;;;5052690;28;20609;-58
2022/02/03 00:28:03;;;;;;;5.43;2.38;;;2.60;99.90;;;;;;5051463;28;20205;-58
2022/02/03 00:33:14;;;;;;;9.85;2.30;;;2.60;99.90;;;;;;5052779;28;20178;-55
2022/02/03 00:35:56;;;;;;;7.80;2.50;;;2.50;99.90;;;;;;5051104;28;20277;-55
2022/02/03 00:49:14;;;;;;;6.07;3.20;;;2.40;99.90;;;;;;5053783;28;20263;-59
2022/02/03 00:51:45;;;;;;;4.68;2.00;;;2.30;99.90;;;;;;5062010;28;20213;-58
2022/02/03 00:54:11;;;;;;;4.32;2.10;;;2.30;99.90;;;;;;5053326;28;20798;-56
2022/02/03 00:56:39;;;;;;;13.50;2.63;;;2.20;99.90;;;;;;5052364;28;20185;-59
2022/02/03 00:59:09;;;;;;;9.48;2.28;;;2.20;99.90;;;;;;5051098;28;20186;-58
2022/02/03 01:01:38;;;;;;;4.50;2.90;;;2.10;99.90;;;;;;5051656;28;20182;-59
2022/02/03 01:04:09;;;;;;;3.00;1.73;;;2.10;99.90;;;;;;5058966;28;20204;-58
2022/02/03 01:06:41;;;;;;;3.60;2.15;;;2.00;99.90;;;;;;5058982;28;20186;-58
2022/02/03 01:09:08;;;;;;;5.65;2.50;;;1.90;99.90;;;;;;5049871;28;20254;-57
2022/02/03 01:11:42;;;;;;;8.05;2.25;;;1.90;99.90;;;;;;5051763;28;20198;-56
2022/02/03 01:17:00;;;;;;;6.07;2.97;;;1.80;99.90;;;;;;5053433;28;20182;-57
2022/02/03 01:45:57;;;;;;;3.90;2.30;;;1.20;99.90;;;;;;5057641;28;20216;-57
2022/02/03 01:48:39;;;;;;;5.68;2.63;;;1.20;99.90;;;;;;5050498;28;20207;-59
2022/02/03 01:53:50;;;;;;;7.72;2.08;;;1.10;99.90;;;;;;5051271;28;20233;-56
2022/02/03 01:56:23;;;;;;;7.82;2.25;;;1.10;99.90;;;;;;5050755;28;20178;-58
2022/02/03 01:58:54;;;;;;;7.15;2.25;;;1.10;99.90;;;;;;5049051;28;20189;-56
2022/02/03 02:01:26;;;;;;;5.53;2.30;;;1.10;99.90;;;;;;5052619;28;20192;-57
2022/02/03 02:04:06;;;;;;;5.45;2.50;;;1.00;99.90;;;;;;5057594;28;20189;-58
2022/02/03 02:07:04;;;;;;;8.35;2.30;;;1.10;99.90;;;;;;5048066;28;20181;-59
2022/02/03 02:13:18;;;;;;;8.02;2.30;;;1.20;99.90;;;;;;5053144;28;20189;-55
2022/02/03 02:38:58;;;;;;;7.15;2.53;;;1.10;99.90;;;;;;5058643;28;20193;-56
2022/02/03 02:44:28;;;;;;;5.32;2.45;;;1.00;99.90;;;;;;5049688;28;20532;-57
2022/02/03 02:46:56;;;;;;;5.70;2.45;;;1.00;99.90;;;;;;5061174;28;20243;-56
2022/02/03 02:49:50;;;;;;;5.90;2.42;;;0.90;99.90;;;;;;5055435;28;20210;-59
2022/02/03 02:52:27;;;;;;;7.70;2.45;;;0.90;99.90;;;;;;5060418;28;20234;-54
2022/02/03 02:55:25;;;;;;;6.05;2.50;;;0.90;99.90;;;;;;5049023;28;20227;-54
2022/02/03 03:01:45;;;;;;;7.90;2.85;;;0.90;99.90;;;;;;5050115;28;20766;-57
2022/02/03 03:29:59;;;;;;;6.05;2.70;;;0.60;99.90;;;;;;5019947;28;20273;-57
2022/02/03 03:33:14;;;;;;;5.55;2.90;;;0.60;99.90;;;;;;5046853;28;20586;-58
2022/02/03 03:35:42;;;;;;;7.63;2.70;;;0.50;99.90;;;;;;5039175;28;20240;-62
2022/02/03 03:38:09;;;;;;;9.88;3.50;;;0.50;99.90;;;;;;5055067;28;20182;-54
2022/02/03 03:40:36;;;;;;;6.07;2.83;;;0.50;99.90;;;;;;5063385;28;20178;-60
2022/02/03 03:43:08;;;;;;;6.75;2.67;;;0.40;99.90;;;;;;5057749;28;20660;-58
2022/02/03 03:45:35;;;;;;;16.40;4.18;;;0.40;99.90;;;;;;5056486;28;20186;-58
2022/02/03 03:48:05;;;;;;;8.43;2.75;;;0.50;99.90;;;;;;5055581;28;20858;-56
2022/02/03 03:50:34;;;;;;;12.25;2.60;;;0.50;99.90;;;;;;5048930;28;20178;-57
2022/02/03 03:53:08;;;;;;;7.43;3.10;;;0.50;99.90;;;;;;5066961;28;20249;-59
2022/02/03 03:56:15;;;;;;;9.13;2.60;;;0.50;99.90;;;;;;5063479;28;20675;-59
2022/02/03 04:59:24;;;;;;;9.35;3.20;;;1.00;99.90;;;;;;5053599;28;20645;-55
2022/02/03 05:35:31;;;;;;;7.10;3.00;;;0.90;99.90;;;;;;5015716;28;20280;-57
2022/02/03 05:44:05;;;;;;;6.20;3.60;;;0.80;99.90;;;;;;5050204;28;20754;-55
2022/02/03 05:55:01;;;;;;;7.25;3.70;;;0.80;99.90;;;;;;5061259;28;20553;-57
2022/02/03 06:08:25;;;;;;;10.33;3.60;;;1.00;99.90;;;;;;5063117;28;20181;-55
2022/02/03 06:14:07;;;;;;;7.20;3.53;;;1.10;99.90;;;;;;5066869;28;20207;-58
2022/02/03 06:16:41;;;;;;;8.38;4.15;;;1.10;99.90;;;;;;5062612;28;20279;-58
2022/02/03 06:21:56;;;;;;;6.00;3.42;;;1.10;99.90;;;;;;5046841;28;20286;-58
2022/02/03 06:24:34;;;;;;;10.45;3.42;;;1.10;99.90;;;;;;5058595;28;20193;-58
2022/02/03 06:29:38;;;;;;;8.00;3.78;;;1.10;99.90;;;;;;5050770;28;20205;-60
2022/02/03 06:32:05;;;;;;;8.32;3.47;;;1.10;99.90;;;;;;5050362;28;20168;-57
2022/02/03 06:34:31;;;;;;;9.75;4.40;;;1.10;99.90;;;;;;5050438;28;20182;-56
2022/02/03 06:36:56;;;;;;;8.70;3.57;;;1.10;99.90;;;;;;5049869;28;20170;-55
2022/02/03 06:39:23;;;;;;;9.77;3.57;;;1.10;99.90;;;;;;5050362;28;20182;-54
2022/02/03 06:41:52;;;;;;;9.77;3.70;;;1.20;99.90;;;;;;5049679;28;20232;-57
2022/02/03 06:44:20;;;;;;;7.30;3.95;;;1.20;99.90;;;;;;5050327;28;20579;-55
2022/02/03 06:46:49;;;;;;;6.28;3.00;;;1.20;99.90;;;;;;5050376;28;20159;-57
2022/02/03 06:49:29;;;;;;;7.57;3.45;;;1.20;99.90;;;;;;5050247;28;20232;-58
2022/02/03 06:52:11;;;;;;;9.25;3.25;;;1.20;99.90;;;;;;5050062;28;20170;-57
2022/02/03 06:57:15;;;;;;;7.22;3.13;;;1.20;99.90;;;;;;5048639;28;20166;-59
2022/02/03 06:59:52;;;;;;;7.63;4.18;;;1.30;99.90;;;;;;5049461;28;20178;-58
2022/02/03 07:02:20;;;;;;;8.75;4.30;;;1.30;99.90;;;;;;5048386;28;20589;-58
2022/02/03 07:04:45;;;;;;;10.75;4.55;;;1.30;99.90;;;;;;5048989;28;20269;-58
2022/02/03 07:07:16;;;;;;;10.97;6.03;;;1.40;99.90;;;;;;5044358;28;20185;-57
2022/02/03 07:09:44;;;;;;;11.77;4.72;;;1.40;99.90;;;;;;5048638;28;20202;-57
2022/02/03 07:12:10;;;;;;;9.82;5.20;;;1.50;99.90;;;;;;5048931;28;20651;-64
2022/02/03 07:14:36;;;;;;;12.40;4.83;;;1.60;99.90;;;;;;5052715;28;20177;-61
2022/02/03 07:17:04;;;;;;;9.23;4.78;;;1.70;99.90;;;;;;5051349;28;20465;-60
2022/02/03 07:19:30;;;;;;;11.70;4.40;;;1.70;99.90;;;;;;5060678;28;20187;-62
2022/02/03 07:21:56;;;;;;;10.27;4.00;;;1.70;99.90;;;;;;5057659;28;20205;-62
2022/02/03 07:24:21;;;;;;;6.40;3.63;;;1.70;99.90;;;;;;5064856;28;20181;-61
2022/02/03 07:26:47;;;;;;;7.20;3.77;;;1.70;99.90;;;;;;5049855;28;20420;-61
2022/02/03 07:29:12;;;;;;;4.53;3.30;;;1.70;99.90;;;;;;5066709;28;20270;-61
2022/02/03 07:31:38;;;;;;;8.23;4.10;;;1.80;99.90;;;;;;5065641;28;20265;-60
2022/02/03 07:34:10;;;;;;;9.20;3.23;;;1.90;99.90;;;;;;5055661;28;20206;-61
2022/02/03 07:36:36;;;;;;;9.40;3.75;;;1.90;99.90;;;;;;5062410;28;20183;-61
2022/02/03 07:39:04;;;;;;;5.70;3.95;;;2.00;99.90;;;;;;5050786;28;20183;-54
2022/02/03 07:41:30;;;;;;;8.02;3.15;;;2.10;99.90;;;;;;5053769;28;20613;-55
2022/02/03 07:43:55;;;;;;;7.07;3.00;;;2.10;99.90;;;;;;5062172;28;20185;-55
2022/02/03 07:46:21;;;;;;;9.20;3.43;;;2.20;99.90;;;;;;5060405;28;20775;-53
2022/02/03 07:48:49;;;;;;;6.57;3.23;;;2.30;99.90;;;;;;5061861;28;20205;-56
2022/02/03 07:51:15;;;;;;;9.23;3.47;;;2.40;99.90;;;;;;5068749;28;20177;-56
2022/02/03 07:53:41;;;;;;;12.55;3.65;;;2.50;99.90;;;;;;5054384;28;20729;-52
2022/02/03 07:56:08;;;;;;;6.75;3.65;;;2.60;99.90;;;;;;5054720;28;20571;-57
2022/02/03 07:58:33;;;;;;;9.18;4.72;;;2.70;99.90;;;;;;5068604;28;20192;-52
2022/02/03 08:00:59;;;;;;;8.73;3.90;;;2.80;99.90;;;;;;5064209;28;20194;-56
2022/02/03 08:03:24;;;;;;;5.97;3.60;;;3.00;99.90;;;;;;5048008;28;20205;-53
2022/02/03 08:05:56;;;;;;;9.90;3.13;;;3.00;99.90;;;;;;5059117;28;20714;-56
2022/02/03 08:08:34;;;;;;;5.65;3.08;;;3.20;99.90;;;;;;5042095;28;20262;-51
2022/02/03 08:11:04;;;;;;;7.30;3.55;;;3.20;99.90;;;;;;5051163;28;20655;-53
2022/02/03 08:13:37;;;;;;;5.13;2.97;;;3.10;99.90;;;;;;5051982;28;20171;-56
2022/02/03 08:16:10;;;;;;;7.80;3.47;;;3.10;99.90;;;;;;5043096;28;20532;-55
2022/02/03 08:18:38;;;;;;;6.65;3.03;;;3.00;99.90;;;;;;5052967;28;20656;-56
2022/02/03 08:21:06;;;;;;;6.22;3.60;;;2.90;99.90;;;;;;5070987;28;20536;-56
2022/02/03 08:26:23;;;;;;;6.18;2.85;;;3.10;99.90;;;;;;5071905;28;20182;-57
2022/02/03 08:31:26;;;;;;;8.43;3.23;;;3.40;99.90;;;;;;5051676;28;20194;-56
2022/02/03 08:33:54;;;;;;;7.97;3.20;;;3.50;99.90;;;;;;5068043;28;20604;-54
2022/02/03 08:36:21;;;;;;;11.45;3.72;;;3.50;99.90;;;;;;5061388;28;20534;-57
2022/02/03 08:38:50;;;;;;;7.10;3.80;;;3.60;99.90;;;;;;5067353;28;20189;-54
2022/02/03 08:41:15;;;;;;;6.63;3.03;;;3.70;99.90;;;;;;5071614;28;20582;-54
2022/02/03 08:43:43;;;;;;;7.50;3.40;;;3.80;99.90;;;;;;5051769;28;20253;-56
2022/02/03 08:46:12;;;;;;;10.38;3.50;;;3.90;99.90;;;;;;5055077;28;20183;-54
2022/02/03 08:48:38;;;;;;;8.40;3.42;;;4.00;99.90;;;;;;5066757;28;20190;-57
2022/02/03 08:51:06;;;;;;;5.77;3.33;;;4.20;99.90;;;;;;5062795;28;20185;-57
2022/02/03 08:53:41;;;;;;;5.15;3.85;;;4.20;99.90;;;;;;5066404;28;20460;-56
2022/02/03 09:34:43;;;;;;;5.80;3.50;;;5.90;99.90;;;;;;5051254;28;20257;-55
2022/02/03 09:37:23;;;;;;;5.72;3.40;;;6.00;99.90;;;;;;5046491;28;20189;-55
2022/02/03 09:53:52;;;;;;;7.45;4.90;;;6.20;99.90;;;;;;5049543;28;20222;-55
2022/02/03 09:56:26;;;;;;;5.68;3.72;;;6.20;99.90;;;;;;5030410;28;20317;-56
2022/02/03 09:59:06;;;;;;;6.53;4.45;;;6.20;99.90;;;;;;5045405;28;20645;-56
2022/02/03 10:01:41;;;;;;;7.65;4.93;;;6.20;99.90;;;;;;5042571;28;20182;-57
2022/02/03 10:04:22;;;;;;;7.95;4.47;;;6.30;99.90;;;;;;5043439;28;20189;-57
2022/02/03 10:06:55;;;;;;;7.38;4.00;;;6.40;99.90;;;;;;5039554;28;20162;-57
2022/02/03 10:09:41;;;;;;;5.82;4.57;;;6.50;99.90;;;;;;5049051;28;20202;-58
2022/02/03 10:12:07;;;;;;;5.85;4.57;;;6.70;99.90;;;;;;5049682;28;20181;-56
2022/02/03 10:14:38;;;;;;;10.63;5.18;;;6.70;99.90;;;;;;5051440;28;20182;-54
2022/02/03 10:17:05;;;;;;;8.00;4.63;;;6.80;99.90;;;;;;5053015;28;20265;-59
2022/02/03 10:19:37;;;;;;;8.77;4.67;;;6.80;99.90;;;;;;5051175;28;20423;-54
2022/02/03 10:22:15;;;;;;;11.50;5.03;;;6.90;99.90;;;;;;5048551;28;20527;-55
2022/02/03 10:24:44;;;;;;;10.73;5.43;;;7.00;99.90;;;;;;5053660;28;20422;-56
2022/02/03 10:27:38;;;;;;;8.07;5.90;;;7.10;99.90;;;;;;5069084;28;20457;-57
2022/02/03 10:30:24;;;;;;;7.13;5.17;;;7.20;99.90;;;;;;5043734;28;20457;-55
2022/02/03 10:32:52;;;;;;;9.87;5.40;;;7.30;99.90;;;;;;5064810;28;20468;-57
2022/02/03 10:35:58;;;;;;;8.70;6.93;;;7.30;99.90;;;;;;5056566;28;20436;-56
2022/02/03 10:55:04;;;;;;;8.55;5.20;;;6.90;99.90;;;;;;5062541;28;20185;-57
2022/02/03 11:00:26;;;;;;;8.32;4.35;;;6.70;99.90;;;;;;5048388;28;20943;-57
2022/02/03 11:08:29;;;;;;;9.30;4.87;;;6.70;99.90;;;;;;5036292;28;20945;-57
2022/02/03 11:10:58;;;;;;;6.20;5.00;;;6.70;99.90;;;;;;5037892;28;20531;-58
2022/02/03 11:13:32;;;;;;;10.57;4.50;;;6.70;99.90;;;;;;5048892;28;20179;-58
2022/02/03 11:16:05;;;;;;;7.65;4.85;;;6.70;99.90;;;;;;5036796;28;20241;-60
2022/02/03 11:18:32;;;;;;;9.73;5.35;;;6.80;99.90;;;;;;5049338;28;20682;-60
2022/02/03 11:21:00;;;;;;;8.23;4.97;;;6.80;99.90;;;;;;5054889;28;20206;-60
2022/02/03 11:26:08;;;;;;;8.20;5.03;;;6.70;99.90;;;;;;5067713;28;20197;-60
2022/02/03 11:29:01;;;;;;;9.65;5.10;;;6.70;99.90;;;;;;5054112;28;20690;-59
2022/02/03 11:34:40;;;;;;;7.80;4.55;;;6.60;99.90;;;;;;5046810;28;20229;-58
2022/02/03 11:52:08;;;;;;;4.78;3.90;;;6.70;99.90;;;;;;5031643;28;20681;-59
2022/02/03 12:00:48;;;;;;;6.65;4.65;;;6.60;99.90;;;;;;5041358;28;20178;-60
2022/02/03 12:21:34;;;;;;;7.55;4.70;;;6.80;99.90;;;;;;5035576;28;20530;-56
2022/02/03 12:24:19;;;;;;;5.90;4.28;;;6.90;99.90;;;;;;5033870;28;20767;-59
2022/02/03 12:29:38;;;;;;;8.98;5.30;;;7.00;99.90;;;;;;5031751;28;20482;-57
2022/02/03 12:32:13;;;;;;;5.78;4.00;;;7.00;99.90;;;;;;5035184;28;20312;-59
2022/02/03 12:43:13;;;;;;;8.30;4.82;;;7.10;99.90;;;;;;5031665;28;20763;-60
2022/02/03 12:45:39;;;;;;;6.63;4.10;;;7.10;99.90;;;;;;5037082;28;20174;-56
2022/02/03 12:48:05;;;;;;;5.20;4.30;;;7.20;99.90;;;;;;5036020;28;20909;-60
2022/02/03 12:50:34;;;;;;;7.67;4.70;;;7.40;99.90;;;;;;5063728;28;20459;-57
2022/02/03 12:53:01;;;;;;;5.97;4.50;;;7.40;99.90;;;;;;5051646;28;20533;-59
2022/02/03 12:55:36;;;;;;;8.13;4.87;;;7.50;99.90;;;;;;5051932;28;20842;-59
2022/02/03 12:58:05;;;;;;;9.23;5.10;;;7.40;99.90;;;;;;5044891;28;20773;-59
2022/02/03 13:00:45;;;;;;;5.67;4.53;;;7.40;99.90;;;;;;5047299;28;20471;-60
2022/02/03 13:03:14;;;;;;;5.80;4.65;;;7.30;99.90;;;;;;5050481;28;20490;-60
2022/02/03 13:05:43;;;;;;;6.80;5.60;;;7.40;99.90;;;;;;5051896;28;20257;-57
2022/02/03 13:08:10;;;;;;;6.27;5.13;;;7.30;99.90;;;;;;5047853;28;20806;-58
2022/02/03 13:10:38;;;;;;;7.97;5.47;;;7.30;99.90;;;;;;5048690;28;20491;-58
2022/02/03 13:13:39;;;;;;;7.50;4.93;;;7.30;99.90;;;;;;5048919;28;20441;-59
2022/02/03 13:16:12;;;;;;;7.67;5.23;;;7.20;99.90;;;;;;5050393;28;21536;-57
2022/02/03 13:18:46;;;;;;;7.60;4.83;;;7.20;99.90;;;;;;5051876;28;20991;-58
2022/02/03 13:24:16;;;;;;;9.00;6.43;;;7.20;99.90;;;;;;5033698;28;20439;-57
2022/02/03 13:26:42;;;;;;;6.80;6.10;;;7.20;99.90;;;;;;5048048;28;20475;-57
2022/02/03 13:29:13;;;;;;;7.60;5.70;;;7.20;99.90;;;;;;5037760;28;22392;-58
2022/02/03 13:31:53;;;;;;;9.23;6.10;;;7.30;99.90;;;;;;5045627;28;20167;-58
2022/02/03 13:37:25;;;;;;;9.63;6.77;;;7.30;99.90;;;;;;5032603;28;20495;-54
2022/02/03 13:40:10;;;;;;;9.03;5.77;;;7.40;99.90;;;;;;5051030;28;20819;-60
2022/02/03 13:42:37;;;;;;;16.37;6.27;;;7.40;99.90;;;;;;5048143;28;20527;-58
2022/02/03 13:45:07;;;;;;;10.60;6.17;;;7.50;99.90;;;;;;5045418;28;20460;-60
2022/02/03 13:47:35;;;;;;;6.57;5.10;;;7.40;99.90;;;;;;5051277;28;20443;-61
2022/02/03 13:50:17;;;;;;;10.53;6.60;;;7.50;99.90;;;;;;5070031;28;20957;-60
2022/02/03 13:52:49;;;;;;;12.67;6.63;;;7.50;99.90;;;;;;5050431;28;20493;-65
2022/02/03 14:15:37;;;;;;;8.38;5.90;;;7.50;99.90;;;;;;5055608;28;20890;-57
2022/02/03 14:20:40;;;;;;;8.20;6.73;;;7.40;99.90;;;;;;5048998;28;20506;-58
2022/02/03 14:28:17;;;;;;;9.73;6.50;;;7.50;99.90;;;;;;5041976;28;20824;-58
2022/02/03 14:30:47;;;;;;;12.00;6.90;;;7.50;99.90;;;;;;5048796;28;20461;-62
2022/02/03 14:33:17;;;;;;;10.73;7.20;;;7.50;99.90;;;;;;5048509;28;20182;-59
2022/02/03 14:35:46;;;;;;;9.10;6.93;;;7.30;99.90;;;;;;5048760;28;20440;-55
2022/02/03 14:38:19;;;;;;;9.70;6.90;;;7.30;99.90;;;;;;5048998;28;20441;-60
2022/02/03 14:43:20;;;;;;;13.90;8.67;;;7.00;99.90;;;;;;5059510;28;20466;-58
2022/02/03 14:45:45;;;;;;;12.80;7.50;;;7.00;99.90;;;;;;5058612;28;20448;-57
2022/02/03 14:48:14;;;;;;;18.43;9.40;;;7.10;99.90;;;;;;5057283;28;20639;-56
2022/02/03 14:50:40;;;;;;;13.68;8.30;;;7.10;99.90;;;;;;5047237;28;20293;-56
2022/02/03 14:53:28;;;;;;;12.57;8.47;;;7.10;99.90;;;;;;5047850;28;20313;-58
2022/02/03 14:58:39;;;;;;;11.77;8.13;;;7.10;99.90;;;;;;5047309;28;20438;-58
2022/02/03 15:01:04;;;;;;;12.38;8.80;;;7.10;99.90;;;;;;5052143;28;21013;-60
2022/02/03 15:03:31;;;;;;;10.73;8.13;;;7.00;99.90;;;;;;5048681;28;20300;-58
2022/02/03 15:06:03;;;;;;;11.48;8.27;;;7.00;99.90;;;;;;5058446;28;20178;-62
2022/02/03 15:11:09;;;;;;;16.10;10.23;;;7.10;99.90;;;;;;5048906;28;20178;-56
2022/02/03 15:16:01;;;;;;;16.40;11.77;;;7.00;99.90;;;;;;5042629;28;20256;-60
2022/02/03 15:18:28;;;;;;;16.85;11.15;;;6.90;99.90;;;;;;5047055;28;20189;-60
2022/02/03 15:20:54;;;;;;;16.60;10.60;;;7.00;99.90;;;;;;5063287;28;20189;-60
2022/02/03 15:23:19;;;;;;;13.90;10.07;;;6.90;99.90;;;;;;5048626;28;20435;-58
2022/02/03 15:25:45;;;;;;;15.00;10.10;;;6.90;99.90;;;;;;5047866;28;20469;-60
2022/02/03 15:28:10;;;;;;;15.10;10.83;;;6.90;99.90;;;;;;5057573;28;20297;-62
2022/02/03 15:30:36;;;;;;;15.30;10.20;;;6.90;99.90;;;;;;5043493;28;20198;-59
2022/02/03 15:33:02;;;;;;;14.50;9.60;;;6.90;99.90;;;;;;5050007;28;20190;-57
2022/02/03 15:35:34;;;;;;;14.53;10.60;;;6.80;99.90;;;;;;5072919;28;20177;-55
2022/02/03 15:38:02;;;;;;;14.60;10.50;;;6.80;99.90;;;;;;5050086;28;20586;-56
2022/02/03 15:40:29;;;;;;;17.00;10.85;;;6.80;99.90;;;;;;5049145;28;20215;-56
2022/02/03 15:45:26;;;;;;;17.63;10.70;;;6.80;99.90;;;;;;5048567;28;20185;-55
2022/02/03 15:47:58;;;;;;;18.83;11.50;;;6.80;99.90;;;;;;5051300;28;20178;-55
2022/02/03 15:59:19;;;;;;;17.85;11.63;;;6.70;99.90;;;;;;5048799;28;20428;-52
2022/02/03 16:01:37;;;;;;;18.10;11.75;;;6.60;99.90;;;;;;5049054;28;20671;-53
2022/02/03 16:04:20;;;;;;;16.33;12.52;;;6.60;99.90;;;;;;5049327;28;20239;-59
2022/02/03 16:17:41;;;;;;;21.00;13.50;;;6.60;99.90;;;;;;5048109;28;20555;-55
2022/02/03 16:20:13;;;;;;;19.70;13.35;;;6.50;99.90;;;;;;5049059;28;20798;-57
2022/02/03 16:25:57;;;;;;;21.17;13.93;;;6.50;99.90;;;;;;5053365;28;20446;-53
2022/02/03 16:42:37;;;;;;;20.73;13.73;;;6.40;99.90;;;;;;5049885;28;20253;-54
2022/02/03 16:52:49;;;;;;;24.17;16.08;;;6.40;99.90;;;;;;5045898;28;20272;-62
2022/02/03 16:55:19;;;;;;;23.63;14.20;;;6.40;99.90;;;;;;5050940;28;20239;-55
2022/02/03 16:57:46;;;;;;;22.38;14.80;;;6.40;99.90;;;;;;5050869;28;20178;-54
2022/02/03 17:00:15;;;;;;;25.52;15.05;;;6.30;99.90;;;;;;5050713;28;20658;-59
2022/02/03 17:02:40;;;;;;;19.52;14.70;;;6.40;99.90;;;;;;5053390;28;20185;-59
2022/02/03 17:05:07;;;;;;;25.80;16.33;;;6.30;99.90;;;;;;5063722;28;20186;-57
2022/02/03 17:07:33;;;;;;;24.55;16.20;;;6.30;99.90;;;;;;5057218;28;20193;-53
2022/02/03 17:09:59;;;;;;;27.20;19.37;;;6.30;99.90;;;;;;5050432;28;20529;-59
2022/02/03 17:12:24;;;;;;;24.43;16.43;;;6.30;99.90;;;;;;5050196;28;20219;-60
2022/02/03 17:14:51;;;;;;;21.97;16.07;;;6.30;99.90;;;;;;5056972;28;20208;-58
2022/02/03 17:17:19;;;;;;;23.17;14.75;;;6.20;99.90;;;;;;5050728;28;20498;-57
2022/02/03 17:19:44;;;;;;;20.73;14.20;;;6.30;99.90;;;;;;5057289;28;20186;-58
2022/02/03 17:22:12;;;;;;;20.10;14.40;;;6.30;99.90;;;;;;5051656;28;20240;-57
2022/02/03 17:24:43;;;;;;;21.63;13.93;;;6.30;99.90;;;;;;5051033;28;20190;-57
2022/02/03 17:27:25;;;;;;;23.95;15.68;;;6.30;99.90;;;;;;5050338;28;20264;-56
2022/02/03 18:02:57;;;;;;;19.73;14.65;;;6.40;99.90;;;;;;5048425;28;20193;-59
2022/02/03 18:29:47;;;;;;;19.83;14.75;;;6.50;99.90;;;;;;5049906;28;20486;-57
2022/02/03 18:35:06;;;;;;;19.48;15.00;;;6.50;99.90;;;;;;5049458;28;20188;-56
2022/02/03 18:58:28;;;;;;;20.53;15.00;;;6.50;99.90;;;;;;5041879;28;20202;-57
2022/02/03 20:01:11;;;;;;;20.88;15.02;;;6.60;99.90;;;;;;5047975;28;20620;-55
2022/02/03 20:07:32;;;;;;;20.17;14.68;;;6.60;99.90;;;;;;5051413;28;20202;-57
2022/02/03 20:10:10;;;;;;;20.05;14.60;;;6.60;99.90;;;;;;5047576;28;20202;-57
2022/02/03 20:12:36;;;;;;;22.50;13.40;;;6.60;99.90;;;;;;5062496;28;20175;-59
2022/02/03 20:15:02;;;;;;;20.30;13.73;;;6.60;99.90;;;;;;5048128;28;20193;-55
2022/02/03 20:17:28;;;;;;;20.60;13.60;;;6.60;99.90;;;;;;5043712;28;20632;-56
2022/02/03 20:19:54;;;;;;;18.43;13.10;;;6.60;99.90;;;;;;5040313;28;20653;-58
2022/02/03 20:22:20;;;;;;;21.10;13.90;;;6.70;99.90;;;;;;5055246;28;20743;-58
2022/02/03 20:24:47;;;;;;;18.60;13.40;;;6.70;99.90;;;;;;5063670;28;20770;-57
2022/02/03 20:27:15;;;;;;;20.87;14.13;;;6.70;99.90;;;;;;5053726;28;20443;-54
2022/02/03 20:29:41;;;;;;;19.07;14.20;;;6.70;99.90;;;;;;5064208;28;20486;-58
2022/02/03 20:32:06;;;;;;;19.60;13.50;;;6.70;99.90;;;;;;5064699;28;20432;-57
2022/02/03 20:34:32;;;;;;;21.17;13.80;;;6.70;99.90;;;;;;5052520;28;20416;-57
2022/02/03 20:36:58;;;;;;;22.93;14.27;;;6.70;99.90;;;;;;5053345;28;20900;-55
2022/02/03 20:39:23;;;;;;;20.50;13.30;;;6.70;99.90;;;;;;5049941;28;20273;-57
2022/02/03 20:41:49;;;;;;;20.37;13.47;;;6.70;99.90;;;;;;5048279;28;20190;-57
2022/02/03 20:44:14;;;;;;;18.17;13.50;;;6.60;99.90;;;;;;5051174;28;20236;-60
2022/02/03 20:46:40;;;;;;;21.30;13.77;;;6.70;99.90;;;;;;5050087;28;20178;-59
2022/02/03 20:49:06;;;;;;;19.57;13.20;;;6.70;99.90;;;;;;5050013;28;20202;-56
2022/02/03 20:51:31;;;;;;;19.13;13.23;;;6.70;99.90;;;;;;5053012;28;21525;-56
2022/02/03 20:53:57;;;;;;;16.93;12.67;;;6.70;99.90;;;;;;5045493;28;20692;-57
2022/02/03 20:56:22;;;;;;;19.37;13.63;;;6.80;99.90;;;;;;5050409;28;20708;-56
2022/02/03 20:58:52;;;;;;;17.57;12.00;;;6.80;99.90;;;;;;5042580;28;20182;-55
2022/02/03 21:01:26;;;;;;;18.87;13.50;;;6.70;99.90;;;;;;5051865;28;20190;-55
2022/02/03 21:03:58;;;;;;;18.40;11.90;;;6.80;99.90;;;;;;5053164;28;20432;-54
2022/02/03 21:06:24;;;;;;;18.43;12.47;;;6.80;99.90;;;;;;5050368;28;20957;-55
2022/02/03 21:08:50;;;;;;;18.57;11.83;;;6.80;99.90;;;;;;5052392;28;20401;-55
2022/02/03 21:11:16;;;;;;;25.90;18.53;;;6.80;99.90;;;;;;5050306;28;20589;-57
2022/02/03 21:13:42;;;;;;;16.13;11.30;;;6.80;99.90;;;;;;5052596;28;20432;-57
2022/02/03 21:16:08;;;;;;;15.00;11.27;;;6.80;99.90;;;;;;5048757;28;20746;-55
2022/02/03 21:18:38;;;;;;;13.93;10.90;;;6.80;99.90;;;;;;5050054;28;20440;-61
2022/02/03 21:21:04;;;;;;;14.63;11.43;;;6.80;99.90;;;;;;5052871;28;20466;-54
2022/02/03 21:23:29;;;;;;;16.40;11.00;;;6.80;99.90;;;;;;5051786;28;20467;-55
2022/02/03 21:25:58;;;;;;;16.33;11.60;;;6.80;99.90;;;;;;5049548;28;20178;-57
2022/02/03 21:28:28;;;;;;;14.03;9.97;;;6.80;99.90;;;;;;5049007;28;20174;-59
2022/02/03 21:30:54;;;;;;;16.27;11.67;;;6.80;99.90;;;;;;5051410;28;20863;-54
2022/02/03 21:33:25;;;;;;;14.40;11.17;;;6.70;99.90;;;;;;5049032;28;20429;-59
2022/02/03 21:35:55;;;;;;;16.17;12.20;;;6.70;99.90;;;;;;5046711;28;20442;-57
2022/02/03 21:38:21;;;;;;;14.23;10.55;;;6.60;99.90;;;;;;5047996;28;20441;-58
2022/02/03 21:40:47;;;;;;;16.87;11.60;;;6.70;99.90;;;;;;5051805;28;20593;-58
2022/02/03 21:43:13;;;;;;;15.40;11.50;;;6.70;99.90;;;;;;5051256;28;20186;-59
2022/02/03 21:45:38;;;;;;;14.43;11.00;;;6.80;99.90;;;;;;5051235;28;20178;-56
2022/02/03 21:48:04;;;;;;;18.13;12.47;;;6.80;99.90;;;;;;5055423;28;20444;-56
2022/02/03 21:50:36;;;;;;;18.40;12.87;;;6.80;99.90;;;;;;5055611;28;20201;-61
2022/02/03 21:53:06;;;;;;;14.57;10.88;;;6.80;99.90;;;;;;5063466;28;20472;-59
2022/02/03 21:55:35;;;;;;;14.93;10.63;;;6.80;99.90;;;;;;5055608;28;20212;-53
2022/02/03 21:58:01;;;;;;;16.33;11.43;;;6.80;99.90;;;;;;5052251;28;20433;-55
2022/02/03 22:00:26;;;;;;;15.43;11.27;;;6.70;99.90;;;;;;5055592;28;20555;-53
2022/02/03 22:02:52;;;;;;;16.13;11.83;;;6.50;99.90;;;;;;5060154;28;21271;-54
2022/02/03 22:05:18;;;;;;;15.07;11.57;;;6.50;99.90;;;;;;5039836;28;20182;-56
2022/02/03 22:07:46;;;;;;;17.50;12.77;;;6.50;99.90;;;;;;5053462;28;20557;-55
2022/02/03 22:10:15;;;;;;;18.13;12.18;;;6.50;99.90;;;;;;5050379;28;20281;-52
2022/02/03 22:12:41;;;;;;;15.55;11.10;;;6.50;99.90;;;;;;5063163;28;20182;-55
2022/02/03 22:15:07;;;;;;;15.90;12.43;;;6.50;99.90;;;;;;5052548;28;20204;-55
2022/02/03 22:17:33;;;;;;;16.60;12.20;;;6.50;99.90;;;;;;5063643;28;20487;-57
2022/02/03 22:20:04;;;;;;;15.20;10.70;;;6.60;99.90;;;;;;5058708;28;20507;-58
2022/02/03 22:28:08;;;;;;;16.90;11.00;;;6.70;99.90;;;;;;5054943;28;20194;-55
2022/02/03 22:39:17;;;;;;;16.10;11.47;;;6.80;99.90;;;;;;5048065;28;20575;-60
2022/02/03 22:49:39;;;;;;;15.30;10.82;;;6.70;99.90;;;;;;5062205;28;20221;-54
2022/02/03 22:52:05;;;;;;;16.03;11.07;;;6.70;99.90;;;;;;5048539;28;20269;-56
2022/02/03 22:54:31;;;;;;;11.95;10.05;;;6.70;99.90;;;;;;5048425;28;20428;-53
2022/02/03 22:56:57;;;;;;;12.03;10.27;;;6.70;99.90;;;;;;5058549;28;20190;-56
2022/02/03 23:02:08;;;;;;;12.83;9.53;;;6.80;99.90;;;;;;5043778;28;20682;-55
2022/02/03 23:04:35;;;;;;;13.47;9.07;;;6.70;99.90;;;;;;5049689;28;20440;-55
2022/02/03 23:07:16;;;;;;;14.20;9.27;;;6.70;99.90;;;;;;5055686;28;20439;-57
2022/02/03 23:20:10;;;;;;;10.70;8.27;;;6.80;99.90;;;;;;5058066;28;20432;-54
2022/02/03 23:22:37;;;;;;;12.00;8.67;;;6.90;99.90;;;;;;5045435;28;20443;-53
2022/02/03 23:25:09;;;;;;;11.70;8.13;;;6.80;99.90;;;;;;5049404;28;20439;-57
2022/02/03 23:30:14;;;;;;;9.90;8.10;;;6.90;99.90;;;;;;5049360;28;20210;-54
2022/02/03 23:32:39;;;;;;;11.00;8.30;;;7.00;99.90;;;;;;5051393;28;20437;-58
2022/02/03 23:37:36;;;;;;;11.40;9.20;;;7.00;99.90;;;;;;5063138;28;20769;-56
2022/02/03 23:40:09;;;;;;;10.80;8.97;;;7.00;99.90;;;;;;5073570;28;20507;-56
